Terminal Aerodrome Forecast
Issued by NWS Twin Cities, MN

Home | Current Version | Previous Version | Text Only | Print | Product List | Glossary On
Versions: 1 2 3 4 5 6 7 8 9 10 11 12 13 14 15 16 17 18 19 20 21 22
000
FTUS43 KMPX 231725
TAFEAU
TAF
KEAU 231725Z 2318/2418 34010KT P6SM SCT030 BKN050
     FM240200 02004KT P6SM SKC
     FM240900 05003KT 3SM BR SKC
     FM241200 10005KT P6SM SKC=

USA.gov is the U.S. government's official web portal to all federal, state and local government web resources and services.